Markham, Canada
Current Conditions -  °F | °C
As of 5:00 PM on Monday 24 Nov 2014 (Local Time) from CYKZ Reporting Station
Scattered Clouds Scattered Clouds  
Wind Chill: 52°   Ceiling: Unl
Heat Index: 52°   Visibility: 15mi
Dew Point: 39°   Wind: 22mph
Humidity: 62%   Direction: 230°SW
Pressure: 29.27"   Gusts: 41mph
Location:  43.86°N, 79.34°W
Report Text: CYKZ 242200Z 23019G36KT 15SM SCT038 11/04 A2927 RMK SC4 SLP912
Loading
Personal Weather Stations






























Interactive Weather Map New forecast layout! Learn more

10-Day Weather Forecast

Advertisements
Track Severe Weather on mobile